Time;durP1;ratioP1;P1;durP2;ratioP2;P2;SDS_P1;SDS_P2;PMS_P1;PMS_P2;Temp;Humidity;BMP_temperature;BMP_pressure;BME280_temperature;BME280_humidity;BME280_pressure;Samples;Min_cycle;Max_cycle;Signal;HPM_P1;HPM_P2
2024/03/30 00:02:37;;;;;;;23.17;8.00;;;;;;;13.04;84.33;99421.09;5078721;57;1138926;-78
2024/03/30 00:07:44;;;;;;;17.70;6.00;;;;;;;13.07;84.96;99413.31;5059544;57;1138560;-78
2024/03/30 00:12:54;;;;;;;11.50;6.07;;;;;;;13.03;85.16;99416.28;5059387;57;1138733;-78
2024/03/30 00:17:59;;;;;;;16.40;6.53;;;;;;;13.04;85.76;99408.66;5075416;57;1138505;-78
2024/03/30 00:23:05;;;;;;;15.93;6.97;;;;;;;13.03;86.09;99407.48;5059555;57;1138310;-78
2024/03/30 00:28:10;;;;;;;18.07;6.33;;;;;;;12.99;86.50;99408.30;5058707;57;1138459;-78
2024/03/30 00:33:17;;;;;;;17.47;7.17;;;;;;;12.99;87.01;99407.47;5057327;57;1138439;-78
2024/03/30 00:38:23;;;;;;;13.13;5.43;;;;;;;12.97;87.37;99401.02;5079220;57;1138566;-78
2024/03/30 00:43:29;;;;;;;16.23;7.00;;;;;;;12.96;87.93;99413.13;5059462;56;1138563;-79
2024/03/30 00:48:35;;;;;;;18.87;8.80;;;;;;;12.93;88.57;99415.59;5069404;57;1138945;-78
2024/03/30 00:53:40;;;;;;;17.25;7.92;;;;;;;12.85;88.90;99414.23;5040801;57;1138983;-78
2024/03/30 00:58:46;;;;;;;17.47;6.60;;;;;;;12.81;89.32;99420.87;5217068;55;1139078;-78
2024/03/30 01:03:52;;;;;;;17.37;6.40;;;;;;;12.76;89.36;99429.80;5217062;55;1138618;-78
2024/03/30 01:08:57;;;;;;;25.73;6.50;;;;;;;12.69;90.23;99418.14;5237774;55;1138720;-78
2024/03/30 01:14:05;;;;;;;19.23;6.23;;;;;;;12.67;90.62;99426.78;5208118;55;1138598;-78
2024/03/30 01:19:11;;;;;;;13.57;5.17;;;;;;;12.66;91.42;99435.73;5162178;55;1138826;-78
2024/03/30 01:24:19;;;;;;;13.87;5.83;;;;;;;12.58;91.77;99425.06;5159649;55;1138760;-78
2024/03/30 01:29:26;;;;;;;12.10;5.17;;;;;;;12.55;92.82;99430.18;5193774;55;1138845;-78
2024/03/30 01:34:35;;;;;;;14.98;5.20;;;;;;;12.48;93.37;99422.53;5216966;55;1139051;-78
2024/03/30 01:39:41;;;;;;;16.25;5.78;;;;;;;12.44;93.56;99421.18;5217405;55;1138504;-78
2024/03/30 01:44:46;;;;;;;16.23;5.37;;;;;;;12.41;93.49;99424.63;5236741;55;1139013;-78
2024/03/30 01:49:54;;;;;;;16.30;5.90;;;;;;;12.38;93.64;99423.13;5210336;53;1138595;-78
2024/03/30 01:55:02;;;;;;;14.67;5.97;;;;;;;12.36;93.83;99426.95;5136910;55;1139200;-78
2024/03/30 02:00:09;;;;;;;11.70;5.90;;;;;;;12.32;93.71;99423.77;5040012;56;1138611;-78
2024/03/30 02:05:15;;;;;;;23.42;6.65;;;;;;;12.13;93.07;99406.74;5128945;55;1138812;-78
2024/03/30 02:10:22;;;;;;;17.32;6.25;;;;;;;11.94;93.88;99395.84;5010295;56;1138517;-78
2024/03/30 02:15:28;;;;;;;19.87;4.92;;;;;;;11.88;94.37;99401.29;5130263;56;1138402;-79
2024/03/30 02:20:33;;;;;;;9.83;5.70;;;;;;;11.86;94.86;99401.94;5117038;56;1138591;-78
2024/03/30 02:25:40;;;;;;;12.13;5.12;;;;;;;11.86;95.73;99395.31;5107140;56;1138036;-78
2024/03/30 02:30:46;;;;;;;12.87;5.50;;;;;;;11.87;96.08;99397.47;5159896;55;1138590;-79
2024/03/30 02:35:52;;;;;;;11.17;4.93;;;;;;;11.80;96.39;99396.41;5194682;55;1139183;-79
2024/03/30 02:40:58;;;;;;;15.67;5.67;;;;;;;11.70;96.41;99404.42;5194536;55;1138464;-78
2024/03/30 02:46:04;;;;;;;13.50;5.20;;;;;;;11.69;97.18;99408.55;5214940;55;1138690;-78
2024/03/30 02:51:10;;;;;;;12.63;4.63;;;;;;;11.57;96.47;99427.33;5199922;55;1138523;-78
2024/03/30 02:56:15;;;;;;;14.80;5.30;;;;;;;11.37;96.54;99440.36;5238756;55;1138504;-78
2024/03/30 03:01:21;;;;;;;15.23;5.33;;;;;;;11.19;97.48;99439.50;5236226;55;1138748;-78
2024/03/30 03:06:27;;;;;;;14.07;5.23;;;;;;;11.14;98.92;99445.27;5256619;55;1138790;-78
2024/03/30 03:11:33;;;;;;;14.40;7.50;;;;;;;11.16;99.02;99455.19;5217333;55;1138564;-78
2024/03/30 03:16:38;;;;;;;14.47;6.58;;;;;;;11.12;98.48;99457.81;5217331;55;1138460;-78
2024/03/30 03:21:44;;;;;;;17.23;6.55;;;;;;;11.13;100.00;99456.00;5232965;55;1138311;-78
2024/03/30 03:26:50;;;;;;;20.90;7.53;;;;;;;11.09;100.00;99455.45;5216437;55;1140518;-78
2024/03/30 03:31:55;;;;;;;23.10;7.17;;;;;;;11.10;100.00;99457.12;5183782;55;1140559;-78
2024/03/30 03:37:01;;;;;;;19.47;6.73;;;;;;;11.00;100.00;99458.16;5182398;55;1140908;-78
2024/03/30 03:42:07;;;;;;;15.20;5.63;;;;;;;10.89;100.00;99463.14;5162580;55;1140620;-78
2024/03/30 03:47:13;;;;;;;12.70;4.80;;;;;;;10.81;100.00;99455.12;5162246;55;1140551;-78
2024/03/30 03:52:18;;;;;;;13.40;5.22;;;;;;;10.77;100.00;99455.89;5188795;55;1140551;-78
2024/03/30 03:57:24;;;;;;;22.00;5.30;;;;;;;10.75;100.00;99459.17;5259910;55;1140427;-78
2024/03/30 04:02:30;;;;;;;18.33;7.47;;;;;;;10.74;100.00;99453.53;5230835;55;1140896;-79
2024/03/30 04:07:36;;;;;;;20.77;8.73;;;;;;;10.66;100.00;99439.39;5151617;55;1140945;-78
2024/03/30 04:12:41;;;;;;;20.57;9.00;;;;;;;10.63;100.00;99443.16;5171429;56;1140474;-78
2024/03/30 04:17:47;;;;;;;15.98;7.90;;;;;;;10.64;100.00;99449.28;5133056;56;1140790;-78
2024/03/30 04:22:53;;;;;;;19.37;7.07;;;;;;;10.62;100.00;99446.77;4937926;56;1140715;-78
2024/03/30 04:27:59;;;;;;;18.92;7.62;;;;;;;10.55;100.00;99453.61;5062977;56;1140784;-78
2024/03/30 04:33:05;;;;;;;20.20;7.20;;;;;;;10.47;100.00;99462.77;5133235;56;1140834;-78
2024/03/30 04:38:10;;;;;;;24.00;9.77;;;;;;;10.51;100.00;99472.08;5151393;56;1140911;-78
2024/03/30 04:43:18;;;;;;;24.80;9.40;;;;;;;10.47;100.00;99456.98;5151464;56;1140865;-78
2024/03/30 04:48:30;;;;;;;23.33;9.03;;;;;;;10.40;100.00;99439.19;5171527;56;1140639;-78
2024/03/30 04:53:36;;;;;;;16.42;7.25;;;;;;;10.34;100.00;99438.46;5129571;55;1140996;-79
2024/03/30 04:58:42;;;;;;;14.97;6.90;;;;;;;10.36;100.00;99443.95;5056991;55;1149860;-79
2024/03/30 05:03:48;;;;;;;16.50;6.45;;;;;;;10.43;100.00;99452.95;5045175;55;1140905;-79
2024/03/30 05:08:54;;;;;;;19.53;8.07;;;;;;;10.50;100.00;99455.38;5030332;57;1140793;-79
2024/03/30 05:13:59;;;;;;;20.93;8.70;;;;;;;10.56;100.00;99453.46;5028656;56;1140929;-79
2024/03/30 05:20:48;;;;;;;19.97;8.23;;;;;;;10.58;100.00;99456.80;5049769;57;1140583;-78
2024/03/30 05:24:12;;;;;;;16.53;7.07;;;;;;;10.64;100.00;99458.04;5026219;57;1140742;-79
2024/03/30 05:29:18;;;;;;;18.53;7.93;;;;;;;10.71;100.00;99460.43;5029519;57;1140563;-79
2024/03/30 05:34:24;;;;;;;19.80;7.33;;;;;;;10.80;100.00;99458.25;5030997;57;1140606;-79
2024/03/30 05:39:29;;;;;;;16.80;7.00;;;;;;;10.85;100.00;99458.63;5050757;57;1140928;-78
2024/03/30 05:44:35;;;;;;;22.50;7.80;;;;;;;10.94;100.00;99455.61;5030905;57;1150194;-78
2024/03/30 05:49:41;;;;;;;17.73;6.63;;;;;;;11.06;100.00;99458.39;5030609;57;1140700;-78
2024/03/30 05:54:46;;;;;;;20.80;6.30;;;;;;;11.20;100.00;99451.76;5091293;57;1140521;-79
2024/03/30 05:59:52;;;;;;;20.93;6.90;;;;;;;11.42;100.00;99452.67;5127069;55;1140702;-78
2024/03/30 06:04:58;;;;;;;20.23;7.50;;;;;;;11.62;100.00;99450.19;5194531;55;1140505;-79
2024/03/30 06:10:05;;;;;;;14.37;6.00;;;;;;;11.81;100.00;99454.53;5203747;55;1140746;-80
2024/03/30 06:15:11;;;;;;;14.83;6.50;;;;;;;12.02;100.00;99449.41;5194806;55;1140682;-79
2024/03/30 06:20:16;;;;;;;20.90;10.03;;;;;;;12.24;100.00;99445.74;5194609;55;1140837;-79
2024/03/30 06:25:22;;;;;;;22.95;7.42;;;;;;;12.46;100.00;99445.72;5194479;55;1143033;-79
2024/03/30 06:30:28;;;;;;;17.90;6.53;;;;;;;12.62;100.00;99435.70;5186622;55;1140600;-79
2024/03/30 06:35:36;;;;;;;21.37;7.27;;;;;;;12.75;100.00;99424.15;5165136;55;1140933;-79
2024/03/30 06:46:06;;;;;;;19.93;6.77;;;;;;;13.11;100.00;99426.11;5191086;55;1141096;-80
2024/03/30 06:51:12;;;;;;;18.50;6.33;;;;;;;13.34;100.00;99436.47;5173221;55;1140950;-79
2024/03/30 06:56:17;;;;;;;20.90;6.60;;;;;;;13.50;100.00;99445.46;5189249;55;1140854;-79
2024/03/30 07:01:25;;;;;;;21.10;6.80;;;;;;;13.52;100.00;99442.15;5193806;55;1140776;-79
2024/03/30 07:06:30;;;;;;;16.10;6.13;;;;;;;13.54;100.00;99450.79;5207950;55;1140640;-79
2024/03/30 07:11:37;;;;;;;17.80;6.67;;;;;;;13.47;100.00;99450.59;5107976;56;1140496;-79
2024/03/30 07:16:43;;;;;;;22.30;7.27;;;;;;;13.45;100.00;99454.41;5107981;56;1143748;-80
2024/03/30 07:21:49;;;;;;;19.42;6.60;;;;;;;13.55;100.00;99447.97;5128747;56;1140558;-81
2024/03/30 07:26:55;;;;;;;14.57;5.57;;;;;;;13.80;100.00;99458.61;5175605;55;1141072;-82
2024/03/30 07:32:01;;;;;;;16.57;6.83;;;;;;;14.12;100.00;99451.96;5181567;55;1140901;-81
2024/03/30 07:37:07;;;;;;;15.43;6.20;;;;;;;14.35;100.00;99442.80;5193669;55;1140870;-81
2024/03/30 07:42:13;;;;;;;21.70;6.28;;;;;;;14.57;100.00;99441.27;5172376;55;1140633;-78
2024/03/30 07:47:18;;;;;;;14.20;5.50;;;;;;;14.78;100.00;99434.39;5182845;55;1140931;-82
2024/03/30 07:52:24;;;;;;;13.95;4.83;;;;;;;14.96;100.00;99429.33;5151677;55;1140906;-79
2024/03/30 07:57:30;;;;;;;11.90;4.90;;;;;;;15.17;100.00;99422.88;5127993;55;1140941;-83
2024/03/30 08:02:35;;;;;;;14.10;5.10;;;;;;;15.46;100.00;99424.86;5139750;55;1141096;-80
2024/03/30 08:07:41;;;;;;;17.13;5.63;;;;;;;15.86;100.00;99425.10;5212324;55;1140647;-80
2024/03/30 08:12:47;;;;;;;15.50;5.08;;;;;;;16.08;100.00;99428.73;5210574;55;1140749;-79
2024/03/30 08:17:53;;;;;;;11.93;5.47;;;;;;;16.30;100.00;99419.85;5217346;55;1140903;-77
2024/03/30 08:22:58;;;;;;;14.77;5.37;;;;;;;16.46;100.00;99429.53;5193242;55;1140837;-82
2024/03/30 08:28:04;;;;;;;10.83;6.10;;;;;;;16.57;100.00;99426.40;5250441;55;1140687;-79
2024/03/30 08:33:10;;;;;;;13.73;5.67;;;;;;;16.67;100.00;99414.95;5139589;55;1140966;-82
2024/03/30 08:38:16;;;;;;;15.57;5.57;;;;;;;16.87;100.00;99417.39;5129337;56;1140957;-82
2024/03/30 08:43:25;;;;;;;12.68;5.30;;;;;;;16.99;100.00;99418.23;5126315;56;1141216;-78
2024/03/30 08:48:31;;;;;;;13.67;5.57;;;;;;;16.95;97.99;99415.64;5079638;57;1140741;-79
2024/03/30 08:53:37;;;;;;;20.20;6.30;;;;;;;16.90;100.00;99413.52;5058915;57;1138409;-81
2024/03/30 08:58:43;;;;;;;21.33;6.13;;;;;;;16.90;100.00;99416.19;5045675;57;1140614;-82
2024/03/30 09:03:49;;;;;;;14.93;5.78;;;;;;;16.85;100.00;99414.07;5236886;55;1141226;-83
2024/03/30 09:08:55;;;;;;;11.93;5.62;;;;;;;16.82;100.00;99405.09;5177203;55;1140484;-82
2024/03/30 09:14:00;;;;;;;13.57;6.23;;;;;;;16.94;100.00;99400.13;5120156;55;1140825;-79
2024/03/30 09:19:06;;;;;;;13.27;4.57;;;;;;;17.21;100.00;99396.73;5135480;55;1141025;-78
2024/03/30 09:24:12;;;;;;;22.53;6.37;;;;;;;17.59;100.00;99399.16;5119264;56;1141132;-80
2024/03/30 09:29:17;;;;;;;12.07;5.00;;;;;;;17.93;100.00;99394.45;5119614;55;1140665;-79
2024/03/30 09:34:23;;;;;;;12.28;5.05;;;;;;;18.18;100.00;99388.17;5214447;55;1140749;-81
2024/03/30 09:39:29;;;;;;;19.87;7.10;;;;;;;18.50;99.53;99396.07;5237086;55;1140826;-79
2024/03/30 09:44:36;;;;;;;18.63;5.10;;;;;;;18.74;97.40;99390.27;5178403;55;1138670;-79
2024/03/30 09:49:44;;;;;;;20.33;5.10;;;;;;;18.88;92.37;99389.30;5186819;55;1138689;-81
2024/03/30 09:54:52;;;;;;;11.70;4.33;;;;;;;19.10;88.98;99389.16;5236647;55;1138508;-79
2024/03/30 10:00:00;;;;;;;18.06;4.98;;;;;;;19.28;88.09;99394.27;5236847;55;1138584;-78
2024/03/30 10:05:12;;;;;;;10.23;4.27;;;;;;;19.47;91.04;99395.86;5198509;55;1138356;-79
2024/03/30 10:10:18;;;;;;;;;;;;;;;19.73;86.44;99396.44;5185492;55;1138986;-80
2024/03/30 10:15:50;;;;;;;23.90;4.80;;;;;;;19.94;87.32;99394.91;5187259;55;974033;-78
2024/03/30 10:20:58;;;;;;;15.38;7.35;;;;;;;20.09;84.79;99390.15;5194596;55;1136312;-83
2024/03/30 10:26:10;;;;;;;14.74;5.56;;;;;;;20.14;77.74;99390.36;5194631;55;1138458;-78
2024/03/30 10:31:15;;;;;;;14.83;6.73;;;;;;;20.29;74.42;99386.11;5193484;55;1138671;-81
2024/03/30 10:36:22;;;;;;;11.35;4.00;;;;;;;20.34;75.23;99374.20;5210871;55;1138861;-82
2024/03/30 10:41:29;;;;;;;14.07;3.72;;;;;;;20.48;77.27;99366.45;5184081;55;1138471;-79
2024/03/30 10:46:35;;;;;;;16.75;6.42;;;;;;;20.65;76.76;99364.95;5188146;55;1138572;-82
2024/03/30 10:51:41;;;;;;;15.65;4.05;;;;;;;20.84;76.41;99363.75;5173095;55;1138504;-81
2024/03/30 10:56:51;;;;;;;15.93;5.25;;;;;;;21.03;72.17;99361.50;5077876;55;1138558;-78
2024/03/30 11:01:57;;;;;;;29.80;5.50;;;;;;;21.17;75.91;99360.38;5205839;55;1138661;-78
2024/03/30 11:07:04;;;;;;;15.60;4.78;;;;;;;21.35;71.39;99362.38;5235208;55;1138481;-81
2024/03/30 11:12:15;;;;;;;20.10;4.70;;;;;;;21.38;71.70;99365.47;5216111;55;1138602;-78
2024/03/30 11:17:28;;;;;;;20.48;4.97;;;;;;;21.45;70.75;99365.92;5216255;55;1138770;-77
2024/03/30 11:23:00;;;;;;;;;;;;;;;21.53;68.77;99354.92;5220477;55;1138676;-78
2024/03/30 11:28:18;;;;;;;19.85;5.87;;;;;;;21.62;70.72;99342.31;5253673;55;974097;-78
2024/03/30 11:33:43;;;;;;;21.68;5.05;;;;;;;21.71;67.87;99337.47;5183320;55;1136505;-77
2024/03/30 11:38:52;;;;;;;23.53;7.73;;;;;;;21.80;69.00;99336.69;5215836;55;1139076;-78
2024/03/30 11:44:03;;;;;;;15.50;4.47;;;;;;;21.96;68.46;99331.57;5237481;55;1138875;-78
2024/03/30 11:49:11;;;;;;;28.60;5.58;;;;;;;22.14;66.10;99329.98;5210100;55;1138813;-78
2024/03/30 11:54:26;;;;;;;21.68;4.95;;;;;;;22.18;65.47;99327.12;5183440;55;1138677;-80
2024/03/30 11:59:40;;;;;;;19.62;5.10;;;;;;;22.25;61.87;99321.16;5127773;56;1139070;-81
2024/03/30 12:04:47;;;;;;;28.70;5.87;;;;;;;22.28;60.30;99316.68;5214339;55;1138643;-81
2024/03/30 12:09:54;;;;;;;41.30;13.40;;;;;;;22.26;62.70;99304.78;5215801;55;1138741;-81
2024/03/30 12:14:59;;;;;;;51.28;13.93;;;;;;;22.37;61.07;99305.38;5205532;55;1140496;-84
2024/03/30 12:20:13;;;;;;;42.40;10.90;;;;;;;22.44;57.30;99308.00;5228170;55;1140941;-82
2024/03/30 12:25:15;;;;;;;30.95;7.58;;;;;;;22.45;58.11;99309.65;5205877;55;1140407;-82
2024/03/30 12:30:22;;;;;;;51.63;14.40;;;;;;;22.49;58.01;99305.44;5206732;55;1138498;-81
2024/03/30 12:35:29;;;;;;;42.65;10.43;;;;;;;22.49;57.89;99309.48;5226658;55;1140546;-85
2024/03/30 12:40:37;;;;;;;35.85;6.03;;;;;;;22.60;61.02;99296.61;5206244;55;1141141;-84
2024/03/30 12:45:45;;;;;;;44.80;8.75;;;;;;;22.60;59.19;99290.40;5151139;55;1138435;-84
2024/03/30 12:50:51;;;;;;;40.73;7.47;;;;;;;22.67;60.46;99284.38;5119412;55;1139010;-82
2024/03/30 12:55:57;;;;;;;40.10;6.50;;;;;;;22.74;60.61;99284.61;5217929;54;1138745;-84
2024/03/30 13:01:05;;;;;;;43.20;7.03;;;;;;;22.78;60.65;99276.90;5203997;54;1138859;-86
2024/03/30 13:06:12;;;;;;;44.67;18.52;;;;;;;22.77;60.35;99273.38;5217262;55;1138856;-81
2024/03/30 13:11:21;;;;;;;36.95;8.58;;;;;;;22.73;60.80;99270.83;5197097;54;1140804;-80
2024/03/30 13:16:28;;;;;;;44.07;9.50;;;;;;;22.74;61.62;99263.05;5206526;55;1138712;-85
2024/03/30 13:21:33;;;;;;;37.00;7.22;;;;;;;22.71;60.40;99274.28;5219289;55;1138813;-83
2024/03/30 13:26:39;;;;;;;39.00;6.92;;;;;;;22.67;60.60;99255.56;5196081;55;1138504;-80
2024/03/30 13:31:49;;;;;;;35.78;7.97;;;;;;;22.68;60.25;99260.42;5175751;55;1138719;-86
2024/03/30 13:36:55;;;;;;;66.85;25.00;;;;;;;22.67;61.25;99252.86;5172581;54;1138640;-80
2024/03/30 13:42:00;;;;;;;49.45;10.53;;;;;;;22.68;62.61;99246.95;5177839;55;1140829;-82
2024/03/30 13:47:07;;;;;;;61.42;7.87;;;;;;;22.73;62.00;99237.66;5206251;55;1140806;-84
2024/03/30 13:52:12;;;;;;;47.27;8.43;;;;;;;22.77;62.56;99232.12;5227181;55;1138661;-83
2024/03/30 13:57:18;;;;;;;56.75;12.60;;;;;;;22.82;60.96;99219.31;5161547;55;1138451;-84
2024/03/30 14:02:24;;;;;;;66.37;12.60;;;;;;;22.84;61.93;99222.60;5118989;56;1140752;-81
2024/03/30 14:07:30;;;;;;;57.23;10.55;;;;;;;22.78;62.34;99223.80;5200617;55;1140408;-83
2024/03/30 14:12:36;;;;;;;57.15;9.43;;;;;;;22.78;62.55;99210.33;5206552;55;1140967;-80
2024/03/30 14:17:43;;;;;;;54.35;10.48;;;;;;;22.80;62.11;99204.70;5180732;55;1138440;-81
2024/03/30 14:22:49;;;;;;;80.90;23.18;;;;;;;22.80;62.47;99212.80;5139297;56;1140535;-84
2024/03/30 14:27:55;;;;;;;83.87;19.37;;;;;;;22.84;61.03;99214.52;5146511;55;1140807;-82
2024/03/30 14:33:01;;;;;;;67.03;12.25;;;;;;;22.83;60.40;99205.60;5187954;55;1140942;-81
2024/03/30 14:38:07;;;;;;;58.55;10.75;;;;;;;22.79;59.56;99197.14;5226966;55;1140533;-82
2024/03/30 14:43:13;;;;;;;55.33;11.40;;;;;;;22.79;60.55;99194.45;5206012;55;1140944;-81
2024/03/30 14:48:19;;;;;;;67.40;9.78;;;;;;;22.78;62.58;99197.38;5197112;55;1140695;-81
2024/03/30 14:53:24;;;;;;;68.47;11.40;;;;;;;22.80;61.45;99200.66;5203140;55;1138819;-81
2024/03/30 14:58:30;;;;;;;59.88;11.53;;;;;;;22.79;62.02;99195.80;5220327;55;1140869;-81
2024/03/30 15:03:48;;;;;;;76.85;10.20;;;;;;;22.85;60.03;99187.33;5206466;55;1141092;-82
2024/03/30 15:08:53;;;;;;;83.00;15.48;;;;;;;22.86;61.37;99191.67;5205506;55;1141034;-80
2024/03/30 15:13:59;;;;;;;84.13;13.57;;;;;;;22.90;60.96;99189.34;5226942;55;1140886;-84
2024/03/30 15:19:04;;;;;;;125.25;30.40;;;;;;;22.89;58.23;99183.65;5178290;55;1140738;-82
2024/03/30 15:24:10;;;;;;;151.07;44.77;;;;;;;22.90;57.23;99183.95;5124128;55;1142951;-79
2024/03/30 15:29:16;;;;;;;132.66;24.42;;;;;;;22.83;55.22;99185.38;5136734;55;1142633;-83
2024/03/30 15:34:23;;;;;;;112.52;18.98;;;;;;;22.76;54.51;99188.16;5230420;55;1142774;-79
2024/03/30 15:39:31;;;;;;;116.25;25.45;;;;;;;22.71;56.97;99177.24;5216578;55;1142624;-78
2024/03/30 15:44:36;;;;;;;199.87;75.62;;;;;;;22.65;56.79;99173.28;5217269;55;1142776;-83
2024/03/30 15:49:46;;;;;;;111.08;26.50;;;;;;;22.59;56.95;99176.39;5237320;55;1152145;-83
2024/03/30 15:54:52;;;;;;;109.20;24.55;;;;;;;22.55;57.10;99167.11;5214775;55;1143043;-80
2024/03/30 15:59:58;;;;;;;120.92;19.77;;;;;;;22.51;57.77;99175.34;5169050;54;1142836;-82
2024/03/30 16:05:03;;;;;;;138.65;23.22;;;;;;;22.43;57.31;99167.08;5193504;55;1142764;-78
2024/03/30 16:10:14;;;;;;;109.52;17.27;;;;;;;22.36;58.46;99167.68;5214863;55;1143062;-84
2024/03/30 16:15:20;;;;;;;121.10;16.90;;;;;;;22.28;59.47;99162.63;5204313;55;1142650;-83
2024/03/30 16:20:25;;;;;;;112.60;20.80;;;;;;;22.21;59.81;99158.36;5117137;56;1147579;-83
2024/03/30 16:25:31;;;;;;;123.78;21.12;;;;;;;22.16;60.39;99156.86;5128212;56;1143013;-83
2024/03/30 16:30:37;;;;;;;135.07;23.05;;;;;;;22.07;60.06;99164.44;5149253;55;1142619;-84
2024/03/30 16:35:47;;;;;;;123.72;20.40;;;;;;;21.98;60.41;99163.91;5194371;55;1142528;-81
2024/03/30 16:40:53;;;;;;;130.52;19.90;;;;;;;21.87;60.31;99157.91;5215311;55;1142952;-84
2024/03/30 16:46:01;;;;;;;136.82;21.30;;;;;;;21.79;60.11;99160.91;5194903;55;1142900;-84
2024/03/30 16:51:07;;;;;;;137.80;20.15;;;;;;;21.72;61.08;99153.42;5196895;55;1142926;-82
2024/03/30 16:56:14;;;;;;;143.55;23.60;;;;;;;21.65;61.46;99166.97;5237199;55;1142734;-81
2024/03/30 17:01:20;;;;;;;134.60;30.08;;;;;;;21.61;61.15;99163.07;5216554;55;1142856;-82
2024/03/30 17:06:28;;;;;;;145.30;30.37;;;;;;;21.57;61.69;99163.73;5216706;55;1142936;-82
2024/03/30 17:11:33;;;;;;;136.77;23.00;;;;;;;21.49;61.46;99170.77;5227425;55;1142603;-81
2024/03/30 17:16:39;;;;;;;133.67;20.77;;;;;;;21.40;61.64;99167.52;5194002;55;1143046;-82
2024/03/30 17:21:45;;;;;;;131.07;22.27;;;;;;;21.27;61.06;99173.02;5204012;55;1142885;-84
2024/03/30 17:26:52;;;;;;;133.20;21.40;;;;;;;21.18;61.56;99178.36;5234670;55;1142845;-81
2024/03/30 17:31:59;;;;;;;138.03;21.85;;;;;;;21.08;62.34;99176.70;5166599;55;1142823;-85
2024/03/30 17:37:05;;;;;;;102.53;20.10;;;;;;;20.99;63.24;99176.13;5216819;55;1142893;-81
2024/03/30 17:42:11;;;;;;;109.78;21.82;;;;;;;20.91;63.99;99165.14;5237158;55;1143164;-82
2024/03/30 17:47:17;;;;;;;121.42;19.62;;;;;;;20.82;64.79;99170.98;5216197;55;1142808;-80
2024/03/30 17:52:24;;;;;;;128.12;20.25;;;;;;;20.70;65.34;99181.62;5204705;55;1142788;-80
2024/03/30 17:57:30;;;;;;;110.32;20.15;;;;;;;20.61;66.04;99187.78;5237595;55;1142965;-83
2024/03/30 18:02:35;;;;;;;140.90;22.70;;;;;;;20.52;66.65;99190.40;5103844;56;1142776;-83
2024/03/30 18:07:41;;;;;;;133.70;21.50;;;;;;;20.46;67.17;99197.17;5195047;55;1143259;-82
2024/03/30 18:12:47;;;;;;;130.05;24.10;;;;;;;20.35;67.61;99198.62;5182986;55;1142458;-82
2024/03/30 18:17:52;;;;;;;111.32;20.02;;;;;;;20.27;68.13;99197.53;5162123;55;1142524;-81
2024/03/30 18:22:58;;;;;;;121.07;24.40;;;;;;;20.15;68.60;99193.36;5184371;55;1143103;-80
2024/03/30 18:28:05;;;;;;;119.60;21.97;;;;;;;20.07;69.10;99192.75;5237185;55;1142838;-81
2024/03/30 18:33:14;;;;;;;126.05;24.00;;;;;;;19.99;69.46;99191.15;5169629;55;1143116;-83
2024/03/30 18:38:18;;;;;;;124.65;26.02;;;;;;;19.89;69.85;99188.89;5162161;55;1142951;-84
2024/03/30 18:43:23;;;;;;;148.70;36.53;;;;;;;19.80;70.25;99177.27;5167352;55;1142871;-83
2024/03/30 18:48:29;;;;;;;155.05;31.02;;;;;;;19.71;70.63;99173.18;5040492;57;1142733;-84
2024/03/30 18:53:37;;;;;;;111.65;24.00;;;;;;;19.61;70.86;99170.40;5194650;55;1142872;-83
2024/03/30 18:58:47;;;;;;;107.35;21.85;;;;;;;19.52;71.24;99176.21;5231598;55;1142821;-85
2024/03/30 19:03:56;;;;;;;109.67;21.30;;;;;;;19.44;71.38;99171.84;5227223;55;1142930;-82
2024/03/30 19:09:02;;;;;;;95.47;22.70;;;;;;;19.38;71.67;99174.55;5196691;55;1143080;-82
2024/03/30 19:14:08;;;;;;;124.47;29.45;;;;;;;19.27;71.79;99180.83;5217473;55;1140775;-83
2024/03/30 19:19:15;;;;;;;124.40;32.38;;;;;;;19.21;71.95;99188.38;5234668;54;1142754;-82
2024/03/30 19:24:21;;;;;;;138.77;37.28;;;;;;;19.15;72.23;99189.20;5212895;55;1143260;-81
2024/03/30 19:29:26;;;;;;;150.30;37.57;;;;;;;19.09;72.28;99189.21;5192271;55;1142926;-83
2024/03/30 19:34:32;;;;;;;157.40;41.37;;;;;;;18.99;72.40;99173.52;5205332;55;1142972;-80
2024/03/30 19:39:38;;;;;;;147.07;34.95;;;;;;;18.89;72.64;99170.44;5184660;55;1143091;-81
2024/03/30 19:44:44;;;;;;;138.50;31.75;;;;;;;18.83;72.91;99168.05;5062871;56;1142928;-79
2024/03/30 19:49:55;;;;;;;111.88;21.15;;;;;;;18.75;73.01;99167.44;5240353;55;1142899;-81
2024/03/30 19:55:00;;;;;;;105.75;17.30;;;;;;;18.65;73.00;99163.80;5047906;56;1142950;-81
2024/03/30 20:00:09;;;;;;;101.80;16.23;;;;;;;18.51;72.94;99167.45;5196584;55;1142854;-79
2024/03/30 20:05:14;;;;;;;98.93;18.23;;;;;;;18.41;72.83;99161.17;5237589;55;1142739;-83
2024/03/30 20:10:20;;;;;;;97.40;20.08;;;;;;;18.32;72.52;99168.26;5217314;55;1140915;-82
2024/03/30 20:15:26;;;;;;;92.82;17.30;;;;;;;18.23;72.84;99159.56;5137507;55;1140925;-83
2024/03/30 20:20:31;;;;;;;96.43;16.37;;;;;;;18.15;73.13;99155.75;5215222;55;1140916;-82
2024/03/30 20:25:37;;;;;;;93.87;16.23;;;;;;;18.05;73.26;99159.30;5217091;55;1140887;-80
2024/03/30 20:30:43;;;;;;;86.90;17.23;;;;;;;17.99;73.70;99158.27;5186980;55;1140770;-80
2024/03/30 20:35:48;;;;;;;103.73;18.57;;;;;;;17.96;73.79;99156.49;5171980;55;1140850;-81
2024/03/30 20:41:12;;;;;;;81.67;18.13;;;;;;;17.87;73.85;99151.30;5199996;55;1142710;-84
2024/03/30 20:46:17;;;;;;;97.33;16.97;;;;;;;17.82;74.03;99155.61;5177578;55;1140623;-81
2024/03/30 20:51:23;;;;;;;89.32;17.50;;;;;;;17.80;74.00;99158.98;5208377;55;1140902;-80
2024/03/30 20:56:29;;;;;;;89.83;14.20;;;;;;;17.76;73.65;99161.23;5233424;54;1140459;-82
2024/03/30 21:01:35;;;;;;;87.57;16.53;;;;;;;17.73;73.60;99167.48;5206120;55;1140958;-81
2024/03/30 21:06:40;;;;;;;86.30;16.40;;;;;;;17.63;73.10;99166.48;5168255;55;1141046;-79
2024/03/30 21:11:46;;;;;;;78.53;16.90;;;;;;;17.56;73.50;99166.97;5226827;55;1140893;-78
2024/03/30 21:16:52;;;;;;;86.70;18.47;;;;;;;17.50;73.55;99173.09;5198263;55;1140645;-82
2024/03/30 21:21:57;;;;;;;83.33;17.77;;;;;;;17.43;73.54;99177.04;5090088;56;1140611;-79
2024/03/30 21:27:03;;;;;;;78.15;16.00;;;;;;;17.41;73.61;99171.09;5227280;55;1140818;-76
2024/03/30 21:32:09;;;;;;;96.30;20.17;;;;;;;17.35;73.21;99169.70;5159446;55;1140644;-82
2024/03/30 21:37:15;;;;;;;86.30;17.93;;;;;;;17.31;73.21;99174.60;5184255;55;1140787;-81
2024/03/30 21:42:22;;;;;;;81.92;14.13;;;;;;;17.27;73.50;99171.16;5216849;55;1140874;-79
2024/03/30 21:47:28;;;;;;;81.83;14.37;;;;;;;17.22;73.26;99171.27;5206501;55;1140487;-77
2024/03/30 21:52:34;;;;;;;75.03;14.50;;;;;;;17.19;73.15;99171.64;5090303;56;1140907;-77
2024/03/30 21:57:40;;;;;;;72.63;13.10;;;;;;;17.11;73.18;99165.09;5170325;55;1140474;-79
2024/03/30 22:02:45;;;;;;;80.57;12.97;;;;;;;17.04;73.19;99166.08;5182056;55;1141140;-79
2024/03/30 22:07:51;;;;;;;91.53;13.73;;;;;;;16.99;73.28;99169.32;5178510;55;1255295;-77
2024/03/30 22:12:57;;;;;;;74.32;12.78;;;;;;;16.96;73.55;99158.22;5216722;55;1140583;-78
2024/03/30 22:18:04;;;;;;;91.57;13.53;;;;;;;16.90;73.55;99145.63;5237065;55;1140651;-79
2024/03/30 22:23:10;;;;;;;77.90;12.75;;;;;;;16.83;73.41;99153.05;5216385;55;1140751;-81
2024/03/30 22:28:15;;;;;;;72.77;11.63;;;;;;;16.78;73.79;99148.00;5216491;55;1140686;-80
2024/03/30 22:33:22;;;;;;;61.60;12.60;;;;;;;16.78;74.08;99149.33;5208456;55;1140967;-78
2024/03/30 22:38:28;;;;;;;91.27;14.87;;;;;;;16.75;74.25;99147.87;5235180;55;1140795;-81
2024/03/30 22:43:33;;;;;;;74.97;13.87;;;;;;;16.76;74.46;99150.86;5213635;55;1141059;-79
2024/03/30 22:48:41;;;;;;;83.20;13.97;;;;;;;16.75;74.55;99141.70;5215617;55;1140724;-79
2024/03/30 22:53:47;;;;;;;93.93;12.30;;;;;;;16.70;74.58;99126.75;5179171;55;1140980;-81
2024/03/30 22:58:53;;;;;;;88.65;12.35;;;;;;;16.57;74.61;99126.61;5200273;55;1140874;-79
2024/03/30 23:03:59;;;;;;;86.42;14.03;;;;;;;16.44;75.18;99116.13;5205511;55;1140882;-80